sensor_id;sensor_type;location;lat;lon;timestamp;P1;durP1;ratioP1;P2;durP2;ratioP2
45618;SDS011;31343;47.520;19.144;2023-05-17T00:01:52;4.00;;;2.47;;
45618;SDS011;31343;47.520;19.144;2023-05-17T00:04:21;4.25;;;2.75;;
45618;SDS011;31343;47.520;19.144;2023-05-17T00:06:47;5.30;;;2.78;;
45618;SDS011;31343;47.520;19.144;2023-05-17T00:09:12;6.85;;;2.88;;
45618;SDS011;31343;47.520;19.144;2023-05-17T00:11:38;5.43;;;3.20;;
45618;SDS011;31343;47.520;19.144;2023-05-17T00:14:04;5.38;;;2.72;;
45618;SDS011;31343;47.520;19.144;2023-05-17T00:16:30;4.45;;;3.20;;
45618;SDS011;31343;47.520;19.144;2023-05-17T00:18:56;3.63;;;2.15;;
45618;SDS011;31343;47.520;19.144;2023-05-17T00:21:22;4.05;;;2.53;;
45618;SDS011;31343;47.520;19.144;2023-05-17T00:23:48;4.57;;;2.17;;
45618;SDS011;31343;47.520;19.144;2023-05-17T00:26:15;3.40;;;1.85;;
45618;SDS011;31343;47.520;19.144;2023-05-17T00:28:40;4.15;;;2.25;;
45618;SDS011;31343;47.520;19.144;2023-05-17T00:31:06;6.60;;;2.28;;
45618;SDS011;31343;47.520;19.144;2023-05-17T00:33:32;5.50;;;3.15;;
45618;SDS011;31343;47.520;19.144;2023-05-17T00:35:57;3.42;;;2.17;;
45618;SDS011;31343;47.520;19.144;2023-05-17T00:38:23;4.53;;;2.88;;
45618;SDS011;31343;47.520;19.144;2023-05-17T00:40:50;3.75;;;2.38;;
45618;SDS011;31343;47.520;19.144;2023-05-17T00:43:18;3.22;;;2.45;;
45618;SDS011;31343;47.520;19.144;2023-05-17T00:45:43;4.88;;;2.67;;
45618;SDS011;31343;47.520;19.144;2023-05-17T00:48:10;3.90;;;2.97;;
45618;SDS011;31343;47.520;19.144;2023-05-17T00:50:37;4.38;;;2.65;;
45618;SDS011;31343;47.520;19.144;2023-05-17T00:53:03;4.55;;;2.65;;
45618;SDS011;31343;47.520;19.144;2023-05-17T00:55:29;2.40;;;1.90;;
45618;SDS011;31343;47.520;19.144;2023-05-17T00:57:55;3.83;;;2.60;;
45618;SDS011;31343;47.520;19.144;2023-05-17T01:00:21;2.20;;;1.73;;
45618;SDS011;31343;47.520;19.144;2023-05-17T01:02:48;4.00;;;2.08;;
45618;SDS011;31343;47.520;19.144;2023-05-17T01:05:14;5.50;;;3.67;;
45618;SDS011;31343;47.520;19.144;2023-05-17T01:07:42;3.10;;;2.63;;
45618;SDS011;31343;47.520;19.144;2023-05-17T01:10:08;3.45;;;2.08;;
45618;SDS011;31343;47.520;19.144;2023-05-17T01:15:25;2.30;;;1.83;;
45618;SDS011;31343;47.520;19.144;2023-05-17T01:18:08;3.75;;;2.65;;
45618;SDS011;31343;47.520;19.144;2023-05-17T01:20:36;2.78;;;1.83;;
45618;SDS011;31343;47.520;19.144;2023-05-17T01:23:09;3.60;;;2.42;;
45618;SDS011;31343;47.520;19.144;2023-05-17T01:28:16;2.42;;;1.95;;
45618;SDS011;31343;47.520;19.144;2023-05-17T01:30:43;2.45;;;1.92;;
45618;SDS011;31343;47.520;19.144;2023-05-17T01:33:11;3.03;;;2.03;;
45618;SDS011;31343;47.520;19.144;2023-05-17T01:35:37;4.03;;;1.85;;
45618;SDS011;31343;47.520;19.144;2023-05-17T01:38:04;3.17;;;2.30;;
45618;SDS011;31343;47.520;19.144;2023-05-17T01:40:30;3.33;;;2.00;;
45618;SDS011;31343;47.520;19.144;2023-05-17T01:43:03;3.03;;;2.00;;
45618;SDS011;31343;47.520;19.144;2023-05-17T01:45:39;3.83;;;2.67;;
45618;SDS011;31343;47.520;19.144;2023-05-17T01:48:33;3.83;;;2.22;;
45618;SDS011;31343;47.520;19.144;2023-05-17T01:50:59;2.72;;;1.95;;
45618;SDS011;31343;47.520;19.144;2023-05-17T01:56:01;3.95;;;2.08;;
45618;SDS011;31343;47.520;19.144;2023-05-17T01:58:30;3.22;;;2.35;;
45618;SDS011;31343;47.520;19.144;2023-05-17T02:01:05;3.60;;;2.20;;
45618;SDS011;31343;47.520;19.144;2023-05-17T02:03:31;4.00;;;2.30;;
45618;SDS011;31343;47.520;19.144;2023-05-17T02:05:57;6.20;;;3.60;;
45618;SDS011;31343;47.520;19.144;2023-05-17T02:08:23;3.05;;;2.15;;
45618;SDS011;31343;47.520;19.144;2023-05-17T02:10:49;3.33;;;1.90;;
45618;SDS011;31343;47.520;19.144;2023-05-17T02:13:15;2.35;;;1.85;;
45618;SDS011;31343;47.520;19.144;2023-05-17T02:15:40;3.35;;;2.25;;
45618;SDS011;31343;47.520;19.144;2023-05-17T02:18:06;3.97;;;2.50;;
45618;SDS011;31343;47.520;19.144;2023-05-17T02:20:32;3.28;;;2.45;;
45618;SDS011;31343;47.520;19.144;2023-05-17T02:22:59;5.15;;;2.33;;
45618;SDS011;31343;47.520;19.144;2023-05-17T02:25:24;4.03;;;2.97;;
45618;SDS011;31343;47.520;19.144;2023-05-17T02:27:50;5.18;;;2.45;;
45618;SDS011;31343;47.520;19.144;2023-05-17T02:30:16;2.55;;;1.95;;
45618;SDS011;31343;47.520;19.144;2023-05-17T02:32:41;3.78;;;2.97;;
45618;SDS011;31343;47.520;19.144;2023-05-17T02:35:08;3.17;;;1.92;;
45618;SDS011;31343;47.520;19.144;2023-05-17T02:37:33;3.15;;;1.98;;
45618;SDS011;31343;47.520;19.144;2023-05-17T02:40:00;3.22;;;2.30;;
45618;SDS011;31343;47.520;19.144;2023-05-17T02:42:26;3.33;;;2.03;;
45618;SDS011;31343;47.520;19.144;2023-05-17T02:44:51;4.38;;;2.33;;
45618;SDS011;31343;47.520;19.144;2023-05-17T02:47:20;4.28;;;2.42;;
45618;SDS011;31343;47.520;19.144;2023-05-17T02:49:46;4.07;;;2.88;;
45618;SDS011;31343;47.520;19.144;2023-05-17T02:52:13;3.00;;;2.08;;
45618;SDS011;31343;47.520;19.144;2023-05-17T02:54:39;3.95;;;2.00;;
45618;SDS011;31343;47.520;19.144;2023-05-17T02:57:07;4.07;;;2.20;;
45618;SDS011;31343;47.520;19.144;2023-05-17T02:59:34;4.55;;;2.72;;
45618;SDS011;31343;47.520;19.144;2023-05-17T03:02:00;3.55;;;2.63;;
45618;SDS011;31343;47.520;19.144;2023-05-17T03:04:26;3.15;;;2.22;;
45618;SDS011;31343;47.520;19.144;2023-05-17T03:06:52;3.03;;;2.35;;
45618;SDS011;31343;47.520;19.144;2023-05-17T03:09:18;5.10;;;3.40;;
45618;SDS011;31343;47.520;19.144;2023-05-17T03:11:43;4.28;;;2.95;;
45618;SDS011;31343;47.520;19.144;2023-05-17T03:14:10;4.00;;;2.65;;
45618;SDS011;31343;47.520;19.144;2023-05-17T03:16:36;3.83;;;3.05;;
45618;SDS011;31343;47.520;19.144;2023-05-17T03:19:02;2.80;;;2.17;;
45618;SDS011;31343;47.520;19.144;2023-05-17T03:21:28;3.72;;;1.83;;
45618;SDS011;31343;47.520;19.144;2023-05-17T03:23:54;2.67;;;2.13;;
45618;SDS011;31343;47.520;19.144;2023-05-17T03:26:19;3.63;;;2.35;;
45618;SDS011;31343;47.520;19.144;2023-05-17T03:28:45;5.38;;;2.55;;
45618;SDS011;31343;47.520;19.144;2023-05-17T03:31:11;2.75;;;1.95;;
45618;SDS011;31343;47.520;19.144;2023-05-17T03:33:38;3.25;;;1.92;;
45618;SDS011;31343;47.520;19.144;2023-05-17T03:36:04;3.17;;;1.85;;
45618;SDS011;31343;47.520;19.144;2023-05-17T03:38:30;3.97;;;2.80;;
45618;SDS011;31343;47.520;19.144;2023-05-17T03:40:55;4.15;;;2.75;;
45618;SDS011;31343;47.520;19.144;2023-05-17T03:43:21;3.45;;;2.17;;
45618;SDS011;31343;47.520;19.144;2023-05-17T03:45:47;3.08;;;1.80;;
45618;SDS011;31343;47.520;19.144;2023-05-17T03:48:13;3.40;;;2.78;;
45618;SDS011;31343;47.520;19.144;2023-05-17T03:50:39;3.47;;;2.65;;
45618;SDS011;31343;47.520;19.144;2023-05-17T03:53:05;3.80;;;2.75;;
45618;SDS011;31343;47.520;19.144;2023-05-17T03:55:32;6.18;;;3.15;;
45618;SDS011;31343;47.520;19.144;2023-05-17T03:57:58;3.15;;;2.63;;
45618;SDS011;31343;47.520;19.144;2023-05-17T04:00:24;3.60;;;2.78;;
45618;SDS011;31343;47.520;19.144;2023-05-17T04:02:51;4.50;;;2.63;;
45618;SDS011;31343;47.520;19.144;2023-05-17T04:05:17;4.80;;;3.20;;
45618;SDS011;31343;47.520;19.144;2023-05-17T04:07:43;3.78;;;2.30;;
45618;SDS011;31343;47.520;19.144;2023-05-17T04:10:09;11.70;;;2.90;;
45618;SDS011;31343;47.520;19.144;2023-05-17T04:12:35;3.47;;;2.45;;
45618;SDS011;31343;47.520;19.144;2023-05-17T04:15:02;3.13;;;2.55;;
45618;SDS011;31343;47.520;19.144;2023-05-17T04:17:28;5.53;;;3.25;;
45618;SDS011;31343;47.520;19.144;2023-05-17T04:19:55;3.58;;;2.20;;
45618;SDS011;31343;47.520;19.144;2023-05-17T04:22:20;3.15;;;1.85;;
45618;SDS011;31343;47.520;19.144;2023-05-17T04:24:46;3.92;;;2.80;;
45618;SDS011;31343;47.520;19.144;2023-05-17T04:27:12;3.97;;;2.15;;
45618;SDS011;31343;47.520;19.144;2023-05-17T04:29:38;4.03;;;2.97;;
45618;SDS011;31343;47.520;19.144;2023-05-17T04:32:05;4.93;;;3.03;;
45618;SDS011;31343;47.520;19.144;2023-05-17T04:34:32;6.28;;;3.13;;
45618;SDS011;31343;47.520;19.144;2023-05-17T04:36:57;4.70;;;3.13;;
45618;SDS011;31343;47.520;19.144;2023-05-17T04:39:23;2.72;;;1.88;;
45618;SDS011;31343;47.520;19.144;2023-05-17T04:41:49;6.30;;;3.88;;
45618;SDS011;31343;47.520;19.144;2023-05-17T04:44:15;2.85;;;1.95;;
45618;SDS011;31343;47.520;19.144;2023-05-17T04:46:42;6.97;;;2.50;;
45618;SDS011;31343;47.520;19.144;2023-05-17T04:49:08;3.67;;;2.90;;
45618;SDS011;31343;47.520;19.144;2023-05-17T04:51:34;3.22;;;2.22;;
45618;SDS011;31343;47.520;19.144;2023-05-17T04:54:00;4.35;;;2.88;;
45618;SDS011;31343;47.520;19.144;2023-05-17T04:56:27;4.25;;;2.15;;
45618;SDS011;31343;47.520;19.144;2023-05-17T04:58:53;4.07;;;3.03;;
45618;SDS011;31343;47.520;19.144;2023-05-17T05:01:19;4.30;;;2.67;;
45618;SDS011;31343;47.520;19.144;2023-05-17T05:03:46;4.25;;;2.22;;
45618;SDS011;31343;47.520;19.144;2023-05-17T05:06:11;3.45;;;2.75;;
45618;SDS011;31343;47.520;19.144;2023-05-17T05:08:37;3.40;;;2.65;;
45618;SDS011;31343;47.520;19.144;2023-05-17T05:11:03;5.88;;;2.55;;
45618;SDS011;31343;47.520;19.144;2023-05-17T05:13:30;2.97;;;1.95;;
45618;SDS011;31343;47.520;19.144;2023-05-17T05:15:57;3.70;;;2.35;;
45618;SDS011;31343;47.520;19.144;2023-05-17T05:18:23;4.13;;;2.47;;
45618;SDS011;31343;47.520;19.144;2023-05-17T05:20:48;4.75;;;3.20;;
45618;SDS011;31343;47.520;19.144;2023-05-17T05:23:14;3.63;;;2.53;;
45618;SDS011;31343;47.520;19.144;2023-05-17T05:25:42;5.28;;;3.42;;
45618;SDS011;31343;47.520;19.144;2023-05-17T05:28:08;3.90;;;2.42;;
45618;SDS011;31343;47.520;19.144;2023-05-17T05:30:36;3.90;;;2.42;;
45618;SDS011;31343;47.520;19.144;2023-05-17T05:33:01;5.03;;;3.40;;
45618;SDS011;31343;47.520;19.144;2023-05-17T05:35:28;3.38;;;2.47;;
45618;SDS011;31343;47.520;19.144;2023-05-17T05:37:59;5.78;;;3.25;;
45618;SDS011;31343;47.520;19.144;2023-05-17T05:40:25;3.70;;;2.47;;
45618;SDS011;31343;47.520;19.144;2023-05-17T05:42:50;5.53;;;2.30;;
45618;SDS011;31343;47.520;19.144;2023-05-17T05:45:16;4.53;;;2.95;;
45618;SDS011;31343;47.520;19.144;2023-05-17T05:47:43;3.90;;;2.40;;
45618;SDS011;31343;47.520;19.144;2023-05-17T05:50:09;5.43;;;3.38;;
45618;SDS011;31343;47.520;19.144;2023-05-17T05:52:35;4.32;;;2.88;;
45618;SDS011;31343;47.520;19.144;2023-05-17T05:55:01;5.15;;;3.38;;
45618;SDS011;31343;47.520;19.144;2023-05-17T05:57:28;4.75;;;3.25;;
45618;SDS011;31343;47.520;19.144;2023-05-17T05:59:53;5.28;;;3.50;;
45618;SDS011;31343;47.520;19.144;2023-05-17T06:02:19;3.28;;;2.92;;
45618;SDS011;31343;47.520;19.144;2023-05-17T06:04:46;4.65;;;2.78;;
45618;SDS011;31343;47.520;19.144;2023-05-17T06:07:15;5.25;;;3.17;;
45618;SDS011;31343;47.520;19.144;2023-05-17T06:09:42;3.60;;;2.95;;
45618;SDS011;31343;47.520;19.144;2023-05-17T06:12:08;5.60;;;3.58;;
45618;SDS011;31343;47.520;19.144;2023-05-17T06:14:33;3.97;;;2.00;;
45618;SDS011;31343;47.520;19.144;2023-05-17T06:17:01;2.65;;;2.25;;
45618;SDS011;31343;47.520;19.144;2023-05-17T06:19:27;7.95;;;2.83;;
45618;SDS011;31343;47.520;19.144;2023-05-17T06:21:53;5.22;;;3.05;;
45618;SDS011;31343;47.520;19.144;2023-05-17T06:24:18;4.07;;;2.95;;
45618;SDS011;31343;47.520;19.144;2023-05-17T06:26:44;5.13;;;2.60;;
45618;SDS011;31343;47.520;19.144;2023-05-17T06:29:11;4.25;;;2.67;;
45618;SDS011;31343;47.520;19.144;2023-05-17T06:31:37;4.97;;;2.95;;
45618;SDS011;31343;47.520;19.144;2023-05-17T06:34:02;4.40;;;2.88;;
45618;SDS011;31343;47.520;19.144;2023-05-17T06:36:28;5.93;;;2.72;;
45618;SDS011;31343;47.520;19.144;2023-05-17T06:38:54;6.15;;;3.97;;
45618;SDS011;31343;47.520;19.144;2023-05-17T06:41:20;6.80;;;3.47;;
45618;SDS011;31343;47.520;19.144;2023-05-17T06:43:46;4.28;;;2.35;;
45618;SDS011;31343;47.520;19.144;2023-05-17T06:46:12;4.68;;;2.80;;
45618;SDS011;31343;47.520;19.144;2023-05-17T06:48:39;6.03;;;3.63;;
45618;SDS011;31343;47.520;19.144;2023-05-17T06:51:05;3.85;;;2.58;;
45618;SDS011;31343;47.520;19.144;2023-05-17T06:53:30;4.97;;;3.25;;
45618;SDS011;31343;47.520;19.144;2023-05-17T06:55:56;4.38;;;3.20;;
45618;SDS011;31343;47.520;19.144;2023-05-17T06:58:22;4.63;;;3.17;;
45618;SDS011;31343;47.520;19.144;2023-05-17T07:00:48;7.25;;;3.08;;
45618;SDS011;31343;47.520;19.144;2023-05-17T07:03:13;4.97;;;2.58;;
45618;SDS011;31343;47.520;19.144;2023-05-17T07:05:39;5.70;;;4.32;;
45618;SDS011;31343;47.520;19.144;2023-05-17T07:08:05;6.60;;;3.47;;
45618;SDS011;31343;47.520;19.144;2023-05-17T07:10:31;5.38;;;3.33;;
45618;SDS011;31343;47.520;19.144;2023-05-17T07:12:56;6.57;;;4.18;;
45618;SDS011;31343;47.520;19.144;2023-05-17T07:15:22;6.30;;;2.92;;
45618;SDS011;31343;47.520;19.144;2023-05-17T07:17:48;5.72;;;3.47;;
45618;SDS011;31343;47.520;19.144;2023-05-17T07:20:13;6.45;;;2.72;;
45618;SDS011;31343;47.520;19.144;2023-05-17T07:22:40;5.47;;;3.03;;
45618;SDS011;31343;47.520;19.144;2023-05-17T07:25:07;4.93;;;2.80;;
45618;SDS011;31343;47.520;19.144;2023-05-17T07:27:33;5.07;;;2.70;;
45618;SDS011;31343;47.520;19.144;2023-05-17T07:30:00;5.85;;;3.28;;
45618;SDS011;31343;47.520;19.144;2023-05-17T07:32:27;6.95;;;4.35;;
45618;SDS011;31343;47.520;19.144;2023-05-17T07:34:52;6.47;;;3.10;;
45618;SDS011;31343;47.520;19.144;2023-05-17T07:37:18;6.22;;;3.40;;
45618;SDS011;31343;47.520;19.144;2023-05-17T07:39:44;4.57;;;3.33;;
45618;SDS011;31343;47.520;19.144;2023-05-17T07:42:10;7.20;;;3.53;;
45618;SDS011;31343;47.520;19.144;2023-05-17T07:44:36;4.45;;;3.30;;
45618;SDS011;31343;47.520;19.144;2023-05-17T07:47:01;4.72;;;2.50;;
45618;SDS011;31343;47.520;19.144;2023-05-17T07:49:29;6.35;;;4.15;;
45618;SDS011;31343;47.520;19.144;2023-05-17T07:51:54;6.25;;;3.33;;
45618;SDS011;31343;47.520;19.144;2023-05-17T07:54:23;4.60;;;3.05;;
45618;SDS011;31343;47.520;19.144;2023-05-17T07:56:51;5.70;;;2.83;;
45618;SDS011;31343;47.520;19.144;2023-05-17T07:59:20;6.55;;;3.42;;
45618;SDS011;31343;47.520;19.144;2023-05-17T08:01:46;5.50;;;3.35;;
45618;SDS011;31343;47.520;19.144;2023-05-17T08:04:12;4.55;;;2.78;;
45618;SDS011;31343;47.520;19.144;2023-05-17T08:06:38;5.32;;;3.78;;
45618;SDS011;31343;47.520;19.144;2023-05-17T08:09:05;5.22;;;3.75;;
45618;SDS011;31343;47.520;19.144;2023-05-17T08:11:31;7.32;;;5.00;;
45618;SDS011;31343;47.520;19.144;2023-05-17T08:13:58;5.90;;;3.40;;
45618;SDS011;31343;47.520;19.144;2023-05-17T08:16:26;5.10;;;3.83;;
45618;SDS011;31343;47.520;19.144;2023-05-17T08:18:52;4.90;;;3.88;;
45618;SDS011;31343;47.520;19.144;2023-05-17T08:21:18;6.38;;;3.30;;
45618;SDS011;31343;47.520;19.144;2023-05-17T08:23:44;6.20;;;4.03;;
45618;SDS011;31343;47.520;19.144;2023-05-17T08:26:10;4.90;;;3.42;;
45618;SDS011;31343;47.520;19.144;2023-05-17T08:28:37;7.30;;;3.80;;
45618;SDS011;31343;47.520;19.144;2023-05-17T08:31:04;9.23;;;4.25;;
45618;SDS011;31343;47.520;19.144;2023-05-17T08:33:30;8.40;;;5.03;;
45618;SDS011;31343;47.520;19.144;2023-05-17T08:35:57;6.40;;;3.53;;
45618;SDS011;31343;47.520;19.144;2023-05-17T08:38:25;7.55;;;3.90;;
45618;SDS011;31343;47.520;19.144;2023-05-17T08:40:57;5.80;;;3.60;;
45618;SDS011;31343;47.520;19.144;2023-05-17T08:43:23;5.40;;;3.22;;
45618;SDS011;31343;47.520;19.144;2023-05-17T08:45:50;5.88;;;3.08;;
45618;SDS011;31343;47.520;19.144;2023-05-17T08:48:18;4.45;;;2.83;;
45618;SDS011;31343;47.520;19.144;2023-05-17T08:50:47;6.47;;;3.30;;
45618;SDS011;31343;47.520;19.144;2023-05-17T08:53:15;6.97;;;4.68;;
45618;SDS011;31343;47.520;19.144;2023-05-17T08:55:47;5.88;;;3.67;;
45618;SDS011;31343;47.520;19.144;2023-05-17T08:58:15;5.43;;;3.60;;
45618;SDS011;31343;47.520;19.144;2023-05-17T09:00:47;5.57;;;3.42;;
45618;SDS011;31343;47.520;19.144;2023-05-17T09:03:15;5.78;;;3.88;;
45618;SDS011;31343;47.520;19.144;2023-05-17T09:05:43;5.57;;;3.70;;
45618;SDS011;31343;47.520;19.144;2023-05-17T09:08:09;5.70;;;3.45;;
45618;SDS011;31343;47.520;19.144;2023-05-17T09:10:41;5.65;;;3.33;;
45618;SDS011;31343;47.520;19.144;2023-05-17T09:13:07;5.03;;;3.60;;
45618;SDS011;31343;47.520;19.144;2023-05-17T09:15:37;6.47;;;3.65;;
45618;SDS011;31343;47.520;19.144;2023-05-17T09:18:08;5.45;;;3.70;;
45618;SDS011;31343;47.520;19.144;2023-05-17T09:20:36;9.55;;;3.88;;
45618;SDS011;31343;47.520;19.144;2023-05-17T09:23:03;6.35;;;3.97;;
45618;SDS011;31343;47.520;19.144;2023-05-17T09:25:31;5.25;;;3.70;;
45618;SDS011;31343;47.520;19.144;2023-05-17T09:28:00;4.68;;;3.15;;
45618;SDS011;31343;47.520;19.144;2023-05-17T09:30:28;7.63;;;4.30;;
45618;SDS011;31343;47.520;19.144;2023-05-17T09:32:56;6.88;;;2.88;;
45618;SDS011;31343;47.520;19.144;2023-05-17T09:35:28;7.45;;;4.00;;
45618;SDS011;31343;47.520;19.144;2023-05-17T09:38:05;3.25;;;2.45;;
45618;SDS011;31343;47.520;19.144;2023-05-17T09:40:36;4.13;;;2.70;;
45618;SDS011;31343;47.520;19.144;2023-05-17T09:43:08;4.68;;;2.95;;
45618;SDS011;31343;47.520;19.144;2023-05-17T09:45:35;4.45;;;3.10;;
45618;SDS011;31343;47.520;19.144;2023-05-17T09:48:36;4.10;;;2.75;;
45618;SDS011;31343;47.520;19.144;2023-05-17T09:50:53;4.47;;;3.30;;
45618;SDS011;31343;47.520;19.144;2023-05-17T09:53:26;7.32;;;4.20;;
45618;SDS011;31343;47.520;19.144;2023-05-17T09:56:00;3.30;;;1.85;;
45618;SDS011;31343;47.520;19.144;2023-05-17T09:58:27;4.55;;;2.75;;
45618;SDS011;31343;47.520;19.144;2023-05-17T10:01:00;5.97;;;3.28;;
45618;SDS011;31343;47.520;19.144;2023-05-17T10:03:32;6.38;;;2.75;;
45618;SDS011;31343;47.520;19.144;2023-05-17T10:06:02;4.82;;;3.00;;
45618;SDS011;31343;47.520;19.144;2023-05-17T10:08:31;5.32;;;3.03;;
45618;SDS011;31343;47.520;19.144;2023-05-17T10:11:07;4.88;;;2.88;;
45618;SDS011;31343;47.520;19.144;2023-05-17T10:13:45;4.10;;;2.78;;
45618;SDS011;31343;47.520;19.144;2023-05-17T10:16:14;6.35;;;3.25;;
45618;SDS011;31343;47.520;19.144;2023-05-17T10:18:41;4.13;;;2.75;;
45618;SDS011;31343;47.520;19.144;2023-05-17T10:21:09;5.25;;;2.33;;
45618;SDS011;31343;47.520;19.144;2023-05-17T10:23:35;5.32;;;3.10;;
45618;SDS011;31343;47.520;19.144;2023-05-17T10:26:04;4.70;;;2.80;;
45618;SDS011;31343;47.520;19.144;2023-05-17T10:28:30;4.13;;;2.55;;
45618;SDS011;31343;47.520;19.144;2023-05-17T10:30:57;7.60;;;2.92;;
45618;SDS011;31343;47.520;19.144;2023-05-17T10:33:23;4.38;;;2.67;;
45618;SDS011;31343;47.520;19.144;2023-05-17T10:35:51;4.60;;;2.80;;
45618;SDS011;31343;47.520;19.144;2023-05-17T10:38:19;4.47;;;2.42;;
45618;SDS011;31343;47.520;19.144;2023-05-17T10:40:45;3.42;;;1.90;;
45618;SDS011;31343;47.520;19.144;2023-05-17T10:43:13;5.35;;;3.17;;
45618;SDS011;31343;47.520;19.144;2023-05-17T10:45:40;6.00;;;3.75;;
45618;SDS011;31343;47.520;19.144;2023-05-17T10:48:07;6.57;;;2.35;;
45618;SDS011;31343;47.520;19.144;2023-05-17T10:50:36;3.95;;;2.50;;
45618;SDS011;31343;47.520;19.144;2023-05-17T10:53:09;3.63;;;2.58;;
45618;SDS011;31343;47.520;19.144;2023-05-17T10:55:36;4.03;;;2.25;;
45618;SDS011;31343;47.520;19.144;2023-05-17T11:00:51;2.90;;;1.90;;
45618;SDS011;31343;47.520;19.144;2023-05-17T11:14:45;3.00;;;1.98;;
45618;SDS011;31343;47.520;19.144;2023-05-17T11:19:55;3.38;;;1.98;;
45618;SDS011;31343;47.520;19.144;2023-05-17T11:22:26;2.03;;;1.42;;
45618;SDS011;31343;47.520;19.144;2023-05-17T11:24:58;3.20;;;1.75;;
45618;SDS011;31343;47.520;19.144;2023-05-17T11:27:25;4.15;;;1.73;;
45618;SDS011;31343;47.520;19.144;2023-05-17T11:30:07;1.52;;;1.10;;
45618;SDS011;31343;47.520;19.144;2023-05-17T11:32:36;3.17;;;1.73;;
45618;SDS011;31343;47.520;19.144;2023-05-17T11:35:02;2.65;;;1.58;;
45618;SDS011;31343;47.520;19.144;2023-05-17T11:37:42;1.75;;;1.10;;
45618;SDS011;31343;47.520;19.144;2023-05-17T11:40:09;3.35;;;1.63;;
45618;SDS011;31343;47.520;19.144;2023-05-17T11:42:37;3.13;;;1.50;;
45618;SDS011;31343;47.520;19.144;2023-05-17T11:45:04;2.72;;;1.60;;
45618;SDS011;31343;47.520;19.144;2023-05-17T11:47:31;4.07;;;1.75;;
45618;SDS011;31343;47.520;19.144;2023-05-17T11:50:09;2.60;;;1.42;;
45618;SDS011;31343;47.520;19.144;2023-05-17T11:52:40;4.07;;;2.40;;
45618;SDS011;31343;47.520;19.144;2023-05-17T11:55:07;3.30;;;1.33;;
45618;SDS011;31343;47.520;19.144;2023-05-17T11:57:38;2.00;;;1.70;;
45618;SDS011;31343;47.520;19.144;2023-05-17T12:05:49;2.20;;;1.30;;
45618;SDS011;31343;47.520;19.144;2023-05-17T12:11:15;1.77;;;1.10;;
45618;SDS011;31343;47.520;19.144;2023-05-17T12:13:54;2.67;;;1.23;;
45618;SDS011;31343;47.520;19.144;2023-05-17T12:16:40;3.28;;;1.35;;
45618;SDS011;31343;47.520;19.144;2023-05-17T12:19:18;2.25;;;1.25;;
45618;SDS011;31343;47.520;19.144;2023-05-17T12:22:15;3.92;;;1.45;;
45618;SDS011;31343;47.520;19.144;2023-05-17T12:24:51;2.92;;;1.30;;
45618;SDS011;31343;47.520;19.144;2023-05-17T12:27:26;1.85;;;1.00;;
45618;SDS011;31343;47.520;19.144;2023-05-17T12:30:16;1.80;;;1.10;;
45618;SDS011;31343;47.520;19.144;2023-05-17T12:33:02;2.65;;;1.60;;
45618;SDS011;31343;47.520;19.144;2023-05-17T12:38:28;2.50;;;1.25;;
45618;SDS011;31343;47.520;19.144;2023-05-17T12:41:00;1.42;;;0.88;;
45618;SDS011;31343;47.520;19.144;2023-05-17T12:43:27;2.13;;;1.15;;
45618;SDS011;31343;47.520;19.144;2023-05-17T12:46:04;1.52;;;1.10;;
45618;SDS011;31343;47.520;19.144;2023-05-17T12:48:52;2.08;;;1.20;;
45618;SDS011;31343;47.520;19.144;2023-05-17T12:51:24;2.58;;;1.83;;
45618;SDS011;31343;47.520;19.144;2023-05-17T12:53:51;1.98;;;1.27;;
45618;SDS011;31343;47.520;19.144;2023-05-17T12:59:48;1.55;;;0.90;;
45618;SDS011;31343;47.520;19.144;2023-05-17T13:02:18;1.48;;;0.80;;
45618;SDS011;31343;47.520;19.144;2023-05-17T13:04:54;1.30;;;1.08;;
45618;SDS011;31343;47.520;19.144;2023-05-17T13:07:27;0.95;;;0.63;;
45618;SDS011;31343;47.520;19.144;2023-05-17T13:13:01;1.13;;;0.60;;
45618;SDS011;31343;47.520;19.144;2023-05-17T13:15:34;2.83;;;1.23;;
45618;SDS011;31343;47.520;19.144;2023-05-17T13:18:15;1.83;;;1.10;;
45618;SDS011;31343;47.520;19.144;2023-05-17T13:23:30;2.33;;;1.67;;
45618;SDS011;31343;47.520;19.144;2023-05-17T13:26:03;0.70;;;0.68;;
45618;SDS011;31343;47.520;19.144;2023-05-17T13:28:42;1.65;;;0.80;;
45618;SDS011;31343;47.520;19.144;2023-05-17T13:31:17;1.27;;;0.93;;
45618;SDS011;31343;47.520;19.144;2023-05-17T13:33:52;1.50;;;0.98;;
45618;SDS011;31343;47.520;19.144;2023-05-17T13:36:36;1.92;;;1.00;;
45618;SDS011;31343;47.520;19.144;2023-05-17T13:39:07;1.38;;;0.80;;
45618;SDS011;31343;47.520;19.144;2023-05-17T13:41:41;1.98;;;1.20;;
45618;SDS011;31343;47.520;19.144;2023-05-17T13:47:12;2.08;;;1.02;;
45618;SDS011;31343;47.520;19.144;2023-05-17T13:49:40;1.65;;;0.90;;
45618;SDS011;31343;47.520;19.144;2023-05-17T13:52:24;2.42;;;1.27;;
45618;SDS011;31343;47.520;19.144;2023-05-17T13:54:52;1.50;;;1.10;;
45618;SDS011;31343;47.520;19.144;2023-05-17T13:57:21;11.30;;;1.67;;
45618;SDS011;31343;47.520;19.144;2023-05-17T13:59:53;2.10;;;1.10;;
45618;SDS011;31343;47.520;19.144;2023-05-17T14:02:20;1.17;;;0.80;;
45618;SDS011;31343;47.520;19.144;2023-05-17T14:04:58;2.15;;;1.20;;
45618;SDS011;31343;47.520;19.144;2023-05-17T14:07:39;0.88;;;0.63;;
45618;SDS011;31343;47.520;19.144;2023-05-17T14:13:17;1.92;;;1.10;;
45618;SDS011;31343;47.520;19.144;2023-05-17T14:15:46;1.70;;;1.10;;
45618;SDS011;31343;47.520;19.144;2023-05-17T14:18:27;1.65;;;1.10;;
45618;SDS011;31343;47.520;19.144;2023-05-17T14:21:09;1.20;;;0.85;;
45618;SDS011;31343;47.520;19.144;2023-05-17T14:23:37;2.30;;;1.30;;
45618;SDS011;31343;47.520;19.144;2023-05-17T14:26:04;1.13;;;1.02;;
45618;SDS011;31343;47.520;19.144;2023-05-17T14:28:31;2.13;;;1.00;;
45618;SDS011;31343;47.520;19.144;2023-05-17T14:31:10;1.65;;;1.02;;
45618;SDS011;31343;47.520;19.144;2023-05-17T14:33:44;1.85;;;1.02;;
45618;SDS011;31343;47.520;19.144;2023-05-17T14:39:15;1.30;;;0.90;;
45618;SDS011;31343;47.520;19.144;2023-05-17T14:41:45;1.02;;;0.93;;
45618;SDS011;31343;47.520;19.144;2023-05-17T14:44:23;0.55;;;0.50;;
45618;SDS011;31343;47.520;19.144;2023-05-17T14:47:05;2.67;;;1.35;;
45618;SDS011;31343;47.520;19.144;2023-05-17T14:49:32;1.33;;;0.95;;
45618;SDS011;31343;47.520;19.144;2023-05-17T14:52:05;1.52;;;0.95;;
45618;SDS011;31343;47.520;19.144;2023-05-17T14:54:42;2.50;;;1.43;;
45618;SDS011;31343;47.520;19.144;2023-05-17T14:57:09;1.00;;;0.80;;
45618;SDS011;31343;47.520;19.144;2023-05-17T15:02:46;0.63;;;0.63;;
45618;SDS011;31343;47.520;19.144;2023-05-17T15:09:22;0.65;;;0.60;;
45618;SDS011;31343;47.520;19.144;2023-05-17T15:14:40;0.80;;;0.70;;
45618;SDS011;31343;47.520;19.144;2023-05-17T15:17:16;1.58;;;0.73;;
45618;SDS011;31343;47.520;19.144;2023-05-17T15:19:58;0.82;;;0.82;;
45618;SDS011;31343;47.520;19.144;2023-05-17T15:22:25;1.02;;;0.50;;
45618;SDS011;31343;47.520;19.144;2023-05-17T15:25:22;1.65;;;0.93;;
45618;SDS011;31343;47.520;19.144;2023-05-17T15:27:55;1.00;;;0.47;;
45618;SDS011;31343;47.520;19.144;2023-05-17T15:30:26;2.38;;;0.88;;
45618;SDS011;31343;47.520;19.144;2023-05-17T15:33:08;0.82;;;0.60;;
45618;SDS011;31343;47.520;19.144;2023-05-17T15:35:35;0.65;;;0.40;;
45618;SDS011;31343;47.520;19.144;2023-05-17T15:38:16;2.35;;;0.95;;
45618;SDS011;31343;47.520;19.144;2023-05-17T15:43:58;0.85;;;0.55;;
45618;SDS011;31343;47.520;19.144;2023-05-17T15:46:45;0.15;;;0.15;;
45618;SDS011;31343;47.520;19.144;2023-05-17T15:49:12;0.77;;;0.60;;
45618;SDS011;31343;47.520;19.144;2023-05-17T15:51:47;1.50;;;0.57;;